createdAt,value
2023-01-27T03:59:38.052Z,1018.42
2023-01-27T04:00:37.035Z,1018.42
2023-01-27T04:01:38.081Z,1018.42
2023-01-27T04:02:37.547Z,1018.40
2023-01-27T04:03:37.535Z,1018.41
2023-01-27T04:04:37.522Z,1018.41
2023-01-27T04:05:37.530Z,1018.43
2023-01-27T04:06:37.548Z,1018.43
2023-01-27T04:07:37.536Z,1018.39
2023-01-27T04:08:37.536Z,1018.45
2023-01-27T04:09:37.544Z,1018.43
2023-01-27T04:10:37.539Z,1018.43
2023-01-27T04:11:37.546Z,1018.50
2023-01-27T04:12:37.521Z,1018.46
2023-01-27T04:13:37.527Z,1018.47
2023-01-27T04:14:37.548Z,1018.50
2023-01-27T04:15:37.134Z,1018.52
2023-01-27T04:16:37.532Z,1018.50
2023-01-27T04:17:37.541Z,1018.50
2023-01-27T04:18:35.923Z,1018.50
2023-01-27T04:19:36.917Z,1018.45
2023-01-27T04:20:37.585Z,1018.47
2023-01-27T04:21:37.545Z,1018.46
2023-01-27T04:22:37.533Z,1018.46
2023-01-27T04:23:37.532Z,1018.41
2023-01-27T04:24:37.545Z,1018.44
2023-01-27T04:25:37.562Z,1018.50
2023-01-27T04:26:37.559Z,1018.51
2023-01-27T04:27:36.896Z,1018.51
2023-01-27T04:28:44.197Z,1018.53
2023-01-27T04:29:37.580Z,1018.48
2023-01-27T04:30:37.578Z,1018.52
2023-01-27T04:31:37.638Z,1018.51
2023-01-27T04:32:37.553Z,1018.48
2023-01-27T04:33:36.866Z,1018.47
2023-01-27T04:34:37.573Z,1018.48
2023-01-27T04:35:38.797Z,1018.48
2023-01-27T04:36:37.587Z,1018.45
2023-01-27T04:37:37.541Z,1018.48
2023-01-27T04:38:36.822Z,1018.51
2023-01-27T04:39:37.563Z,1018.55
2023-01-27T04:40:36.813Z,1018.56
2023-01-27T04:41:35.833Z,1018.52
2023-01-27T04:42:35.829Z,1018.52
2023-01-27T04:43:35.843Z,1018.54
2023-01-27T04:44:37.065Z,1018.51
2023-01-27T04:45:37.122Z,1018.56
2023-01-27T04:46:35.777Z,1018.53
2023-01-27T04:47:37.097Z,1018.59
2023-01-27T04:48:35.784Z,1018.57
2023-01-27T04:49:35.780Z,1018.62
2023-01-27T04:50:35.811Z,1018.60
2023-01-27T04:51:35.767Z,1018.60
2023-01-27T04:52:37.566Z,1018.65
2023-01-27T04:53:36.747Z,1018.65
2023-01-27T04:54:36.757Z,1018.63
2023-01-27T04:55:37.071Z,1018.66
2023-01-27T04:56:36.739Z,1018.64
2023-01-27T04:57:36.743Z,1018.63
2023-01-27T04:58:36.736Z,1018.63
2023-01-27T04:59:35.724Z,1018.66
2023-01-27T05:00:37.578Z,1018.65
2023-01-27T05:01:36.753Z,1018.70
2023-01-27T05:02:37.612Z,1018.66
2023-01-27T05:03:36.713Z,1018.68
2023-01-27T05:04:37.580Z,1018.69
2023-01-27T05:05:37.579Z,1018.76
2023-01-27T05:06:37.091Z,1018.76
2023-01-27T05:07:37.594Z,1018.74
2023-01-27T05:08:35.685Z,1018.75
2023-01-27T05:09:35.688Z,1018.78
2023-01-27T05:10:35.676Z,1018.80
2023-01-27T05:11:37.082Z,1018.78
2023-01-27T05:12:37.589Z,1018.78
2023-01-27T05:13:35.668Z,1018.78
2023-01-27T05:14:37.588Z,1018.77
2023-01-27T05:15:35.652Z,1018.81
2023-01-27T05:16:35.713Z,1018.79
2023-01-27T05:17:35.640Z,1018.82
2023-01-27T05:18:35.644Z,1018.84
2023-01-27T05:19:37.157Z,1018.88
2023-01-27T05:20:35.708Z,1018.84
2023-01-27T05:21:35.640Z,1018.86
2023-01-27T05:22:35.636Z,1018.86
2023-01-27T05:23:37.603Z,1018.85
2023-01-27T05:24:37.604Z,1018.85
2023-01-27T05:25:37.587Z,1018.85
2023-01-27T05:26:37.606Z,1018.84
2023-01-27T05:27:36.629Z,1018.88
2023-01-27T05:28:37.104Z,1018.82
2023-01-27T05:29:37.112Z,1018.80
2023-01-27T05:30:35.633Z,1018.87
2023-01-27T05:31:37.336Z,1018.84
2023-01-27T05:32:35.641Z,1018.85
2023-01-27T05:33:37.103Z,1018.88
2023-01-27T05:34:37.114Z,1018.87
2023-01-27T05:35:37.123Z,1018.85
2023-01-27T05:36:37.119Z,1018.87
2023-01-27T05:37:37.102Z,1018.84
2023-01-27T05:38:37.114Z,1018.86
2023-01-27T05:39:37.114Z,1018.84
2023-01-27T05:40:37.105Z,1018.87
2023-01-27T05:41:37.109Z,1018.85
2023-01-27T05:42:37.098Z,1018.86
2023-01-27T05:43:37.116Z,1018.92
2023-01-27T05:44:37.107Z,1018.90
2023-01-27T05:45:37.108Z,1018.95
2023-01-27T05:46:37.172Z,1018.87
2023-01-27T05:47:37.111Z,1018.90
2023-01-27T05:48:37.113Z,1018.94
2023-01-27T05:49:36.630Z,1018.93
2023-01-27T05:50:36.498Z,1018.95
2023-01-27T05:51:36.491Z,1018.91
2023-01-27T05:52:35.481Z,1018.94
2023-01-27T05:53:35.520Z,1018.90
2023-01-27T05:54:37.135Z,1018.92
2023-01-27T05:55:37.114Z,1018.97
2023-01-27T05:56:37.120Z,1018.98
2023-01-27T05:57:37.148Z,1018.99
2023-01-27T05:58:37.182Z,1019.02
2023-01-27T05:59:37.125Z,1019.02
2023-01-27T06:00:37.128Z,1019.03
2023-01-27T06:01:37.176Z,1019.07
2023-01-27T06:02:37.151Z,1019.06
2023-01-27T06:03:37.118Z,1019.10
2023-01-27T06:04:37.136Z,1019.10
2023-01-27T06:05:37.133Z,1019.11
2023-01-27T06:06:37.136Z,1019.10
2023-01-27T06:07:36.450Z,1019.14
2023-01-27T06:08:37.146Z,1019.15
2023-01-27T06:09:37.134Z,1019.11
2023-01-27T06:10:35.407Z,1019.11
2023-01-27T06:11:35.417Z,1019.15
2023-01-27T06:12:35.399Z,1019.13
2023-01-27T06:13:35.393Z,1019.13
2023-01-27T06:14:37.158Z,1019.17
2023-01-27T06:15:36.675Z,1019.16
2023-01-27T06:16:35.438Z,1019.17
2023-01-27T06:17:35.417Z,1019.19
2023-01-27T06:18:35.399Z,1019.18
2023-01-27T06:19:36.650Z,1019.20
2023-01-27T06:20:35.368Z,1019.22
2023-01-27T06:21:35.359Z,1019.25
2023-01-27T06:22:35.347Z,1019.24
2023-01-27T06:23:37.675Z,1019.26
2023-01-27T06:24:35.389Z,1019.25
2023-01-27T06:25:35.347Z,1019.28
2023-01-27T06:26:36.337Z,1019.26
2023-01-27T06:27:37.144Z,1019.24
2023-01-27T06:28:35.348Z,1019.18
2023-01-27T06:29:37.164Z,1019.25
2023-01-27T06:30:36.335Z,1019.23
2023-01-27T06:31:37.168Z,1019.27
2023-01-27T06:32:35.300Z,1019.23
2023-01-27T06:33:37.141Z,1019.23
2023-01-27T06:34:37.153Z,1019.32
2023-01-27T06:35:37.160Z,1019.29
2023-01-27T06:36:35.356Z,1019.25
2023-01-27T06:37:37.145Z,1019.27
2023-01-27T06:38:37.140Z,1019.30
2023-01-27T06:39:37.168Z,1019.34
2023-01-27T06:40:37.164Z,1019.31
2023-01-27T06:41:37.150Z,1019.30
2023-01-27T06:42:37.151Z,1019.35
2023-01-27T06:43:37.172Z,1019.32
2023-01-27T06:44:37.151Z,1019.31
2023-01-27T06:45:37.166Z,1019.30
2023-01-27T06:46:37.201Z,1019.32
2023-01-27T06:47:35.234Z,1019.29
2023-01-27T06:48:35.241Z,1019.31
2023-01-27T06:49:35.225Z,1019.32
2023-01-27T06:50:37.183Z,1019.32
2023-01-27T06:51:35.217Z,1019.33
2023-01-27T06:52:35.215Z,1019.40
2023-01-27T06:53:35.212Z,1019.40
2023-01-27T06:54:37.180Z,1019.40
2023-01-27T06:55:35.232Z,1019.45
2023-01-27T06:56:35.215Z,1019.47
2023-01-27T06:57:37.218Z,1019.47
2023-01-27T06:58:37.166Z,1019.44
2023-01-27T06:59:35.284Z,1019.44
2023-01-27T07:00:37.175Z,1019.44
2023-01-27T07:01:35.245Z,1019.49
2023-01-27T07:02:36.823Z,1019.44
2023-01-27T07:03:36.908Z,1019.45
2023-01-27T07:04:35.273Z,1019.44
2023-01-27T07:05:36.706Z,1019.40
2023-01-27T07:06:36.694Z,1019.40
2023-01-27T07:07:36.689Z,1019.40
2023-01-27T07:08:36.666Z,1019.42
2023-01-27T07:09:51.413Z,1019.43
2023-01-27T07:10:36.774Z,1019.44
2023-01-27T07:11:35.136Z,1019.46
2023-01-27T07:12:36.702Z,1019.43
2023-01-27T07:13:36.691Z,1019.53
2023-01-27T07:14:36.682Z,1019.49
2023-01-27T07:15:36.680Z,1019.49
2023-01-27T07:16:36.731Z,1019.58
2023-01-27T07:17:36.701Z,1019.56
2023-01-27T07:18:36.671Z,1019.57
2023-01-27T07:19:36.668Z,1019.60
2023-01-27T07:20:36.741Z,1019.57
2023-01-27T07:21:36.725Z,1019.62
2023-01-27T07:22:36.682Z,1019.61
2023-01-27T07:23:36.676Z,1019.64
2023-01-27T07:24:36.684Z,1019.68
2023-01-27T07:25:36.690Z,1019.67
2023-01-27T07:26:36.207Z,1019.68
2023-01-27T07:27:36.720Z,1019.67
2023-01-27T07:28:35.060Z,1019.65
2023-01-27T07:29:36.688Z,1019.65
2023-01-27T07:30:36.725Z,1019.66
2023-01-27T07:31:38.009Z,1019.67
2023-01-27T07:32:36.685Z,1019.71
2023-01-27T07:33:36.703Z,1019.73
2023-01-27T07:34:36.702Z,1019.77
2023-01-27T07:35:36.743Z,1019.83
2023-01-27T07:36:36.685Z,1019.85
2023-01-27T07:37:38.341Z,1019.92
2023-01-27T07:38:36.732Z,1019.93
2023-01-27T07:39:34.999Z,1019.89
2023-01-27T07:40:36.720Z,1019.90
2023-01-27T07:41:36.732Z,1019.88
2023-01-27T07:42:36.711Z,1019.90
2023-01-27T07:43:35.005Z,1019.96
2023-01-27T07:44:36.704Z,1020.00
2023-01-27T07:45:35.126Z,1020.02
2023-01-27T07:46:35.046Z,1020.02
2023-01-27T07:47:36.744Z,1020.10
2023-01-27T07:48:34.967Z,1020.11
2023-01-27T07:49:34.955Z,1020.10
2023-01-27T07:50:34.959Z,1020.12
2023-01-27T07:51:34.974Z,1020.10
2023-01-27T07:52:36.728Z,1020.14
2023-01-27T07:53:34.940Z,1020.15
2023-01-27T07:54:36.720Z,1020.20
2023-01-27T07:55:34.944Z,1020.18
2023-01-27T07:56:34.935Z,1020.21
2023-01-27T07:57:34.957Z,1020.20
2023-01-27T07:58:36.721Z,1020.20
2023-01-27T07:59:36.721Z,1020.18
2023-01-27T08:00:34.904Z,1020.19
2023-01-27T08:01:36.764Z,1020.23
2023-01-27T08:02:34.908Z,1020.21
2023-01-27T08:03:36.802Z,1020.28
2023-01-27T08:04:50.883Z,1020.29
2023-01-27T08:05:34.896Z,1020.28
2023-01-27T08:06:36.737Z,1020.32
2023-01-27T08:07:34.898Z,1020.29
2023-01-27T08:08:38.170Z,1020.35
2023-01-27T08:09:36.738Z,1020.34
2023-01-27T08:10:36.746Z,1020.37
2023-01-27T08:11:36.738Z,1020.33
2023-01-27T08:12:36.727Z,1020.35
2023-01-27T08:13:36.714Z,1020.35
2023-01-27T08:14:36.753Z,1020.36
2023-01-27T08:15:36.742Z,1020.39
2023-01-27T08:16:36.795Z,1020.38
2023-01-27T08:17:34.833Z,1020.37
2023-01-27T08:18:34.829Z,1020.35
2023-01-27T08:19:34.848Z,1020.40
2023-01-27T08:20:36.777Z,1020.37
2023-01-27T08:21:34.824Z,1020.37
2023-01-27T08:22:34.807Z,1020.38
2023-01-27T08:23:34.819Z,1020.39
2023-01-27T08:24:34.816Z,1020.42
2023-01-27T08:25:36.781Z,1020.42
2023-01-27T08:26:34.791Z,1020.44
2023-01-27T08:27:34.829Z,1020.46
2023-01-27T08:28:34.831Z,1020.43
2023-01-27T08:29:34.785Z,1020.47
2023-01-27T08:30:36.805Z,1020.46
2023-01-27T08:31:34.808Z,1020.51
2023-01-27T08:32:36.744Z,1020.51
2023-01-27T08:33:36.746Z,1020.52
2023-01-27T08:34:36.758Z,1020.54
2023-01-27T08:35:36.699Z,1020.56
2023-01-27T08:36:35.754Z,1020.54
2023-01-27T08:37:36.242Z,1020.54
2023-01-27T08:38:36.276Z,1020.48
2023-01-27T08:39:36.277Z,1020.53
2023-01-27T08:40:36.354Z,1020.57
2023-01-27T08:41:36.236Z,1020.59
2023-01-27T08:42:34.795Z,1020.58
2023-01-27T08:43:34.868Z,1020.55
2023-01-27T08:44:36.325Z,1020.61
2023-01-27T08:45:38.496Z,1020.61
2023-01-27T08:46:34.763Z,1020.64
2023-01-27T08:47:35.709Z,1020.65
2023-01-27T08:48:36.366Z,1020.65
2023-01-27T08:49:34.819Z,1020.64
2023-01-27T08:50:36.343Z,1020.66
2023-01-27T08:51:36.266Z,1020.66
2023-01-27T08:52:35.738Z,1020.66
2023-01-27T08:53:35.690Z,1020.64
2023-01-27T08:54:34.693Z,1020.68
2023-01-27T08:55:34.679Z,1020.63
2023-01-27T08:56:36.909Z,1020.67
2023-01-27T08:57:36.994Z,1020.70
2023-01-27T08:58:35.688Z,1020.63
2023-01-27T08:59:34.656Z,1020.68
2023-01-27T09:00:36.284Z,1020.68
2023-01-27T09:01:34.709Z,1020.70
2023-01-27T09:02:34.640Z,1020.77
2023-01-27T09:03:36.297Z,1020.78
2023-01-27T09:04:36.346Z,1020.80
2023-01-27T09:05:36.274Z,1020.80
2023-01-27T09:06:36.257Z,1020.81
2023-01-27T09:07:36.262Z,1020.89
2023-01-27T09:08:36.303Z,1020.89
2023-01-27T09:09:36.288Z,1020.83
2023-01-27T09:10:36.280Z,1020.84
2023-01-27T09:11:36.265Z,1020.88
2023-01-27T09:12:34.594Z,1020.91
2023-01-27T09:13:34.585Z,1020.89
2023-01-27T09:14:35.802Z,1020.89
2023-01-27T09:15:35.574Z,1020.91
2023-01-27T09:16:36.252Z,1020.87
2023-01-27T09:17:34.585Z,1020.86
2023-01-27T09:18:36.303Z,1020.85
2023-01-27T09:19:34.587Z,1020.86
2023-01-27T09:20:34.646Z,1020.82
2023-01-27T09:21:34.579Z,1020.86
2023-01-27T09:22:36.288Z,1020.78
2023-01-27T09:23:34.548Z,1020.78
2023-01-27T09:24:34.549Z,1020.81
2023-01-27T09:25:34.542Z,1020.80
2023-01-27T09:26:36.307Z,1020.80
2023-01-27T09:27:41.101Z,1020.80
2023-01-27T09:28:36.297Z,1020.82
2023-01-27T09:29:34.545Z,1020.83
2023-01-27T09:30:35.805Z,1020.84
2023-01-27T09:31:34.643Z,1020.83
2023-01-27T09:32:35.539Z,1020.82
2023-01-27T09:33:36.324Z,1020.82
2023-01-27T09:34:34.504Z,1020.79
2023-01-27T09:35:36.314Z,1020.87
2023-01-27T09:36:34.500Z,1020.90
2023-01-27T09:37:37.391Z,1020.83
2023-01-27T09:38:34.516Z,1020.90
2023-01-27T09:39:34.720Z,1020.89
2023-01-27T09:40:36.448Z,1020.90
2023-01-27T09:41:34.678Z,1020.94
2023-01-27T09:42:37.335Z,1020.92
2023-01-27T09:43:36.324Z,1020.85
2023-01-27T09:44:36.304Z,1020.86
2023-01-27T09:45:36.299Z,1020.85
2023-01-27T09:46:36.321Z,1020.86
2023-01-27T09:47:36.296Z,1020.84
2023-01-27T09:48:36.308Z,1020.88
2023-01-27T09:49:36.313Z,1020.90
2023-01-27T09:50:36.300Z,1020.85
2023-01-27T09:51:37.322Z,1020.90
2023-01-27T09:52:46.786Z,1020.88
2023-01-27T09:53:36.323Z,1020.86
2023-01-27T09:54:36.312Z,1020.86
2023-01-27T09:55:36.322Z,1020.91
2023-01-27T09:56:36.336Z,1020.93
2023-01-27T09:57:36.345Z,1020.92
2023-01-27T09:59:36.321Z,1020.98
2023-01-27T10:00:36.305Z,1020.94
2023-01-27T10:01:36.391Z,1020.97
2023-01-27T10:02:37.354Z,1020.96
2023-01-27T10:13:57.182Z,1021.03
2023-01-27T10:14:57.129Z,1020.93
2023-01-27T10:15:58.718Z,1020.96
2023-01-27T10:16:57.117Z,1021.00
2023-01-27T10:17:58.669Z,1021.01
2023-01-27T10:18:57.115Z,1020.95
2023-01-27T10:19:58.686Z,1020.98
2023-01-27T10:20:57.090Z,1021.06
2023-01-27T10:21:59.807Z,1021.04
2023-01-27T10:22:57.111Z,1021.00
2023-01-27T10:23:58.723Z,1021.00
2023-01-27T10:24:57.082Z,1021.03
2023-01-27T10:25:58.652Z,1020.99
2023-01-27T10:26:58.682Z,1021.00
2023-01-27T10:27:58.708Z,1020.97
2023-01-27T10:28:57.120Z,1020.97
2023-01-27T10:29:58.715Z,1020.96
2023-01-27T10:30:58.710Z,1021.00
2023-01-27T10:31:57.214Z,1021.02
2023-01-27T10:32:57.072Z,1021.03
2023-01-27T10:33:57.030Z,1021.02
2023-01-27T10:34:58.206Z,1021.05
2023-01-27T10:35:57.047Z,1021.02
2023-01-27T10:36:57.035Z,1021.01
2023-01-27T10:37:58.696Z,1021.04
2023-01-27T10:38:57.012Z,1021.01
2023-01-27T10:39:57.007Z,1021.03
2023-01-27T10:40:57.018Z,1021.01
2023-01-27T10:41:57.004Z,1021.02
2023-01-27T10:42:58.708Z,1021.04
2023-01-27T10:43:58.669Z,1021.07
2023-01-27T10:44:58.671Z,1021.08
2023-01-27T10:45:58.815Z,1021.13
2023-01-27T10:46:58.722Z,1021.03
2023-01-27T10:47:58.691Z,1021.06
2023-01-27T10:48:58.692Z,1021.05
2023-01-27T10:49:58.701Z,1021.02
2023-01-27T10:50:58.682Z,1021.00
2023-01-27T10:51:58.698Z,1021.01
2023-01-27T10:52:58.720Z,1021.02
2023-01-27T10:53:58.688Z,1021.04
2023-01-27T10:54:58.706Z,1021.03
2023-01-27T10:55:58.814Z,1020.99
2023-01-27T10:56:58.693Z,1021.02
2023-01-27T10:57:58.963Z,1020.97
2023-01-27T10:58:59.039Z,1021.01
2023-01-27T11:00:33.719Z,1021.01
2023-01-27T11:01:19.818Z,1021.01
2023-01-27T11:01:58.724Z,1021.00
2023-01-27T11:02:58.710Z,1021.00
2023-01-27T11:03:58.732Z,1021.05
2023-01-27T11:04:58.690Z,1021.03
2023-01-27T11:05:56.899Z,1021.05
2023-01-27T11:06:58.706Z,1021.05
2023-01-27T11:07:56.904Z,1021.03
2023-01-27T11:08:56.906Z,1021.03
2023-01-27T11:09:56.889Z,1021.08
2023-01-27T11:10:56.901Z,1021.05
2023-01-27T11:11:58.713Z,1021.03
2023-01-27T11:12:56.876Z,1020.99
2023-01-27T11:13:58.704Z,1021.00
2023-01-27T11:14:58.698Z,1021.03
2023-01-27T11:15:58.717Z,1020.98
2023-01-27T11:16:58.717Z,1020.97
2023-01-27T11:17:58.724Z,1021.02
2023-01-27T11:18:58.721Z,1021.00
2023-01-27T11:19:58.653Z,1020.99
2023-01-27T11:20:58.728Z,1020.98
2023-01-27T11:22:07.502Z,1020.97
2023-01-27T11:22:56.845Z,1020.96
2023-01-27T11:23:58.742Z,1020.98
2023-01-27T11:24:58.708Z,1020.96
2023-01-27T11:25:58.758Z,1020.97
2023-01-27T11:26:56.823Z,1020.95
2023-01-27T11:27:58.740Z,1020.98
2023-01-27T11:28:58.726Z,1020.99
2023-01-27T11:29:56.837Z,1020.97
2023-01-27T11:30:58.744Z,1020.98
2023-01-27T11:31:58.753Z,1020.97
2023-01-27T11:32:58.735Z,1020.99
2023-01-27T11:33:58.723Z,1020.99
2023-01-27T11:34:58.714Z,1020.94
2023-01-27T11:35:58.729Z,1020.97
2023-01-27T11:36:58.735Z,1020.97
2023-01-27T11:38:14.595Z,1021.02
2023-01-27T11:38:58.742Z,1021.02
2023-01-27T11:39:56.777Z,1021.03
2023-01-27T11:40:56.774Z,1020.98
2023-01-27T11:41:58.758Z,1021.03
2023-01-27T11:42:56.780Z,1021.05
2023-01-27T11:43:56.761Z,1021.02
2023-01-27T11:44:56.752Z,1021.05
2023-01-27T11:45:56.799Z,1021.05
2023-01-27T11:46:58.754Z,1020.99
2023-01-27T11:47:57.744Z,1021.00
2023-01-27T11:48:57.741Z,1021.03
2023-01-27T11:49:58.363Z,1021.00
2023-01-27T11:50:56.727Z,1020.96
2023-01-27T11:51:59.243Z,1020.94
2023-01-27T11:52:56.722Z,1020.95
2023-01-27T11:53:58.252Z,1020.96
2023-01-27T11:54:56.717Z,1020.95
2023-01-27T11:55:58.256Z,1020.98
2023-01-27T11:56:56.711Z,1020.99
2023-01-27T11:57:58.243Z,1020.96
2023-01-27T11:58:58.253Z,1020.97
2023-01-27T11:59:58.285Z,1020.95
2023-01-27T12:00:58.243Z,1020.91
2023-01-27T12:01:58.239Z,1020.89
2023-01-27T12:02:58.238Z,1020.92
2023-01-27T12:03:58.327Z,1020.89
2023-01-27T12:04:56.797Z,1020.90
2023-01-27T12:05:58.284Z,1020.92
2023-01-27T12:06:58.258Z,1020.88
2023-01-27T12:07:56.679Z,1020.86
2023-01-27T12:08:56.674Z,1020.84
2023-01-27T12:09:56.656Z,1020.85
2023-01-27T12:10:56.653Z,1020.83
2023-01-27T12:11:56.645Z,1020.85
2023-01-27T12:12:58.264Z,1020.84
2023-01-27T12:13:56.645Z,1020.81
2023-01-27T12:14:56.636Z,1020.82
2023-01-27T12:15:56.692Z,1020.81
2023-01-27T12:16:56.635Z,1020.79
2023-01-27T12:17:58.286Z,1020.79
2023-01-27T12:18:58.278Z,1020.78
2023-01-27T12:19:58.265Z,1020.74
2023-01-27T12:20:58.253Z,1020.77
2023-01-27T12:21:58.271Z,1020.76
2023-01-27T12:22:58.275Z,1020.81
2023-01-27T12:23:58.334Z,1020.76
2023-01-27T12:24:58.261Z,1020.80
2023-01-27T12:25:58.270Z,1020.79
2023-01-27T12:26:58.289Z,1020.78
2023-01-27T12:27:58.318Z,1020.77
2023-01-27T12:28:58.265Z,1020.76
2023-01-27T12:29:58.275Z,1020.80
2023-01-27T12:30:58.316Z,1020.77
2023-01-27T12:31:58.378Z,1020.80
2023-01-27T12:32:58.286Z,1020.78
2023-01-27T12:33:56.563Z,1020.83
2023-01-27T12:34:56.614Z,1020.81
2023-01-27T12:35:56.567Z,1020.77
2023-01-27T12:36:56.562Z,1020.80
2023-01-27T12:37:58.306Z,1020.79
2023-01-27T12:38:56.548Z,1020.78
2023-01-27T12:39:58.289Z,1020.80
2023-01-27T12:40:56.544Z,1020.74
2023-01-27T12:41:56.540Z,1020.75
2023-01-27T12:42:56.542Z,1020.75
2023-01-27T12:43:56.525Z,1020.69
2023-01-27T12:44:59.609Z,1020.75
2023-01-27T12:45:56.520Z,1020.76
2023-01-27T12:46:56.547Z,1020.77
2023-01-27T12:47:56.512Z,1020.76
2023-01-27T12:48:58.281Z,1020.76
2023-01-27T12:49:58.292Z,1020.76
2023-01-27T12:50:58.297Z,1020.76
2023-01-27T12:51:58.359Z,1020.70
2023-01-27T12:52:58.292Z,1020.74
2023-01-27T12:53:58.325Z,1020.73
2023-01-27T12:54:58.320Z,1020.73
2023-01-27T12:55:58.308Z,1020.72
2023-01-27T12:56:58.299Z,1020.73
2023-01-27T12:57:58.296Z,1020.72
2023-01-27T12:58:58.306Z,1020.75
2023-01-27T12:59:58.300Z,1020.73
2023-01-27T13:00:58.356Z,1020.71
2023-01-27T13:01:58.460Z,1020.71
2023-01-27T13:02:58.290Z,1020.76
2023-01-27T13:03:58.362Z,1020.74
2023-01-27T13:04:58.294Z,1020.80
2023-01-27T13:05:58.338Z,1020.76
2023-01-27T13:06:58.414Z,1020.82
2023-01-27T13:07:58.303Z,1020.85
2023-01-27T13:08:58.300Z,1020.81
2023-01-27T13:10:00.737Z,1020.79
2023-01-27T13:10:58.315Z,1020.83
2023-01-27T13:11:58.305Z,1020.79
2023-01-27T13:12:58.324Z,1020.78
2023-01-27T13:13:56.415Z,1020.81
2023-01-27T13:14:58.396Z,1020.82
2023-01-27T13:15:56.497Z,1020.80
2023-01-27T13:16:56.423Z,1020.77
2023-01-27T13:17:56.415Z,1020.75
2023-01-27T13:18:58.344Z,1020.73
2023-01-27T13:19:58.333Z,1020.75
2023-01-27T13:20:56.388Z,1020.80
2023-01-27T13:21:57.401Z,1020.80
2023-01-27T13:22:56.381Z,1020.80
2023-01-27T13:23:58.349Z,1020.83
2023-01-27T13:24:58.327Z,1020.83
2023-01-27T13:25:56.380Z,1020.83
2023-01-27T13:26:58.312Z,1020.85
2023-01-27T13:27:56.367Z,1020.86
2023-01-27T13:28:58.336Z,1020.88
2023-01-27T13:29:58.328Z,1020.90
2023-01-27T13:30:58.431Z,1020.92
2023-01-27T13:31:58.390Z,1020.90
2023-01-27T13:32:58.337Z,1020.90
2023-01-27T13:33:58.323Z,1020.96
2023-01-27T13:34:58.325Z,1020.88
2023-01-27T13:35:56.322Z,1020.92
2023-01-27T13:36:56.323Z,1020.90
2023-01-27T13:37:57.853Z,1020.89
2023-01-27T13:38:56.324Z,1020.90
2023-01-27T13:39:57.342Z,1020.91
2023-01-27T13:40:56.395Z,1020.88
2023-01-27T13:41:57.848Z,1020.90
2023-01-27T13:42:56.295Z,1020.91
2023-01-27T13:43:56.306Z,1020.87
2023-01-27T13:44:57.342Z,1020.93
2023-01-27T13:45:56.296Z,1020.91
2023-01-27T13:46:56.327Z,1020.92
2023-01-27T13:47:56.277Z,1020.88
2023-01-27T13:48:56.278Z,1020.91
2023-01-27T13:49:57.853Z,1020.93
2023-01-27T13:50:56.261Z,1020.91
2023-01-27T13:51:57.834Z,1020.92
2023-01-27T13:52:57.839Z,1020.94
2023-01-27T13:53:57.854Z,1020.95
2023-01-27T13:54:57.832Z,1020.93
2023-01-27T13:55:57.860Z,1020.92
2023-01-27T13:56:57.851Z,1020.94
2023-01-27T13:57:57.857Z,1020.97
2023-01-27T13:58:57.836Z,1020.97
2023-01-27T13:59:57.857Z,1020.91
2023-01-27T14:00:57.877Z,1020.92
2023-01-27T14:01:57.967Z,1020.95
2023-01-27T14:02:57.898Z,1020.97
2023-01-27T14:03:57.863Z,1020.96
2023-01-27T14:04:57.878Z,1020.93
2023-01-27T14:05:56.206Z,1020.96
2023-01-27T14:06:57.859Z,1020.96
2023-01-27T14:07:56.202Z,1020.95
2023-01-27T14:08:56.203Z,1020.95
2023-01-27T14:09:57.846Z,1020.97
2023-01-27T14:10:56.195Z,1021.00
2023-01-27T14:11:57.871Z,1021.00
2023-01-27T14:12:57.862Z,1021.02
2023-01-27T14:13:56.180Z,1021.02
2023-01-27T14:14:58.587Z,1021.06
2023-01-27T14:15:57.903Z,1021.06
2023-01-27T14:16:56.160Z,1021.08
2023-01-27T14:17:56.156Z,1021.03
2023-01-27T14:18:56.185Z,1021.09
2023-01-27T14:19:57.885Z,1021.07
2023-01-27T14:20:56.145Z,1021.10
2023-01-27T14:21:56.167Z,1021.08
2023-01-27T14:22:57.883Z,1021.08
2023-01-27T14:23:57.924Z,1021.08
2023-01-27T14:24:57.876Z,1021.12
2023-01-27T14:25:57.870Z,1021.06
2023-01-27T14:26:57.858Z,1021.05
2023-01-27T14:27:57.862Z,1020.98
2023-01-27T14:28:57.881Z,1021.03
2023-01-27T14:29:57.873Z,1021.08
2023-01-27T14:30:57.941Z,1021.10
2023-01-27T14:31:57.901Z,1021.13
2023-01-27T14:32:57.886Z,1021.16
2023-01-27T14:33:57.880Z,1021.15
2023-01-27T14:34:57.888Z,1021.14
2023-01-27T14:35:57.866Z,1021.12
2023-01-27T14:36:57.878Z,1021.17
2023-01-27T14:38:57.893Z,1021.13
2023-01-27T14:39:57.883Z,1021.17
2023-01-27T14:40:57.879Z,1021.17
2023-01-27T14:41:56.053Z,1021.18
2023-01-27T14:42:57.895Z,1021.21
2023-01-27T14:43:58.288Z,1021.21
2023-01-27T14:45:03.120Z,1021.19
2023-01-27T14:45:57.065Z,1021.19
2023-01-27T14:46:57.410Z,1021.19
2023-01-27T14:47:56.035Z,1021.21
2023-01-27T14:48:56.026Z,1021.21
2023-01-27T14:49:57.029Z,1021.20
2023-01-27T14:50:57.037Z,1021.24
2023-01-27T14:51:56.015Z,1021.22
2023-01-27T14:52:57.909Z,1021.25
2023-01-27T14:53:56.020Z,1021.22
2023-01-27T14:54:57.891Z,1021.28
2023-01-27T14:55:56.010Z,1021.29
2023-01-27T14:56:55.995Z,1021.31
2023-01-27T14:57:57.915Z,1021.34
2023-01-27T14:58:56.992Z,1021.33
2023-01-27T14:59:56.990Z,1021.27
2023-01-27T15:00:56.993Z,1021.27
2023-01-27T15:01:57.906Z,1021.30
2023-01-27T15:02:57.906Z,1021.31
2023-01-27T15:03:57.896Z,1021.29
2023-01-27T15:04:58.020Z,1021.28
2023-01-27T15:05:57.920Z,1021.30
2023-01-27T15:06:55.968Z,1021.28
2023-01-27T15:07:57.413Z,1021.31
2023-01-27T15:08:55.950Z,1021.29
2023-01-27T15:09:55.946Z,1021.28
2023-01-27T15:10:57.422Z,1021.31
2023-01-27T15:11:55.932Z,1021.32
2023-01-27T15:12:55.942Z,1021.33
2023-01-27T15:13:57.441Z,1021.33
2023-01-27T15:14:55.932Z,1021.36
2023-01-27T15:15:55.976Z,1021.35
2023-01-27T15:16:55.908Z,1021.31
2023-01-27T15:17:57.462Z,1021.32
2023-01-27T15:18:57.922Z,1021.31
2023-01-27T15:19:55.919Z,1021.29
2023-01-27T15:20:55.904Z,1021.35
2023-01-27T15:21:55.898Z,1021.36
2023-01-27T15:22:55.896Z,1021.38
2023-01-27T15:23:57.435Z,1021.40
2023-01-27T15:24:55.884Z,1021.40
2023-01-27T15:25:57.432Z,1021.42
2023-01-27T15:26:55.874Z,1021.45
2023-01-27T15:27:57.445Z,1021.43
2023-01-27T15:28:57.416Z,1021.44
2023-01-27T15:29:58.418Z,1021.47
2023-01-27T15:30:57.419Z,1021.48
2023-01-27T15:31:57.514Z,1021.49
2023-01-27T15:32:57.444Z,1021.52
2023-01-27T15:33:57.435Z,1021.51
2023-01-27T15:34:56.837Z,1021.51
2023-01-27T15:35:57.457Z,1021.50
2023-01-27T15:36:57.431Z,1021.52
2023-01-27T15:37:57.539Z,1021.52
2023-01-27T15:38:57.460Z,1021.53
2023-01-27T15:40:04.455Z,1021.54
2023-01-27T15:40:55.820Z,1021.53
2023-01-27T15:41:55.849Z,1021.50
2023-01-27T15:42:55.829Z,1021.48
2023-01-27T15:43:56.949Z,1021.48
2023-01-27T15:44:56.788Z,1021.51
2023-01-27T15:45:55.846Z,1021.53
2023-01-27T15:46:57.443Z,1021.59
2023-01-27T15:47:57.929Z,1021.51
2023-01-27T15:48:57.482Z,1021.52
2023-01-27T15:49:56.916Z,1021.50
2023-01-27T15:50:57.011Z,1021.47
2023-01-27T15:51:55.774Z,1021.50
2023-01-27T15:52:55.771Z,1021.52
2023-01-27T15:53:55.753Z,1021.55
2023-01-27T15:54:56.949Z,1021.56
2023-01-27T15:55:56.952Z,1021.53
2023-01-27T15:56:57.457Z,1021.55
2023-01-27T15:57:57.455Z,1021.58
2023-01-27T15:58:57.456Z,1021.54
2023-01-27T15:59:59.306Z,1021.55
2023-01-27T16:00:57.493Z,1021.54
2023-01-27T16:13:11.382Z,1021.61
2023-01-27T16:14:13.408Z,1021.62
2023-01-27T16:15:11.618Z,1021.61
2023-01-27T16:16:11.349Z,1021.65
2023-01-27T16:17:12.909Z,1021.64
2023-01-27T16:18:11.325Z,1021.62
2023-01-27T16:19:12.406Z,1021.66
2023-01-27T16:20:11.316Z,1021.63
2023-01-27T16:21:11.298Z,1021.66
2023-01-27T16:22:11.286Z,1021.68
2023-01-27T16:23:12.278Z,1021.66
2023-01-27T16:24:12.494Z,1021.63
2023-01-27T16:25:12.913Z,1021.65
2023-01-27T16:26:12.262Z,1021.68
2023-01-27T16:27:11.281Z,1021.68
2023-01-27T16:28:12.899Z,1021.72